Mehmet Bey — 9HUD6 — position and weather

sailwx.info

Track history (hours):
 
Tides and Currents Weather Stations Pressure Air Temp Water Temp Dewpoint Dewpoint Depression Visibility Wind Speed Wind Dir Waves Ship Positions

Mehmet Bey

Last reported at 2017-Jan-11 05:19 UTC. Time now 2017-Jan-17 04:46 UTC.
Position N 45°07' E 036°29'.

Length 131 m; draft 7.1 m.

Type: Cargo ship. MMSI: 248864000.

Date/timePositionNaut miles runAvg speedWind from/ knotsBaromVisibWave heightAir tempDewpointWater temp
2017-Jan-11 05:19N 45°07' E 036°29'7 8.7
2017-Jan-11 04:33N 45°14' E 036°28'8 7.7
2017-Jan-11 03:33N 45°20' E 036°34'9 8.7
2017-Jan-11 02:33N 45°27' E 036°41'8 7.5
2017-Jan-11 01:33N 45°34' E 036°39'  
2017-Jan-03 17:33N 45°24' E 036°40'8 8.0
2017-Jan-03 16:34N 45°19' E 036°32'7 6.8
2017-Jan-03 15:33N 45°13' E 036°29'3 2.6
2017-Jan-03 14:31N 45°10' E 036°30'0 0.0
2017-Jan-03 13:31N 45°10' E 036°30'0 0.0
2017-Jan-03 12:31N 45°10' E 036°30'0 0.0
2017-Jan-03 09:31N 45°10' E 036°30'0 0.0
2017-Jan-03 08:19N 45°10' E 036°30'0 0.0
2017-Jan-03 07:28N 45°10' E 036°30'0 0.0
2017-Jan-03 06:28N 45°10' E 036°30'0 0.0
2017-Jan-03 05:25N 45°10' E 036°30'0 0.0
2017-Jan-03 04:25N 45°10' E 036°30'0 0.0
2017-Jan-03 03:07N 45°10' E 036°30'0 0.1
2017-Jan-03 02:32N 45°10' E 036°30'5 5.2
2017-Jan-03 01:33N 45°05' E 036°30'  
Track history (hours):
 
Tides and Currents Weather Stations Pressure Air Temp Water Temp Dewpoint Dewpoint Depression Visibility Wind Speed Wind Dir Waves Ship Positions

Mehmet Bey

Last reported at 2017-Jan-11 05:19 UTC. Time now 2017-Jan-17 04:46 UTC.
Position N 45°07' E 036°29'.

Length 131 m; draft 7.1 m.

Type: Cargo ship. MMSI: 248864000.

Date/timePositionNaut miles runAvg speedWind from/ knotsBaromVisibWave heightAir tempDewpointWater temp
2017-Jan-11 05:19N 45°07' E 036°29'7 8.7
2017-Jan-11 04:33N 45°14' E 036°28'8 7.7
2017-Jan-11 03:33N 45°20' E 036°34'9 8.7
2017-Jan-11 02:33N 45°27' E 036°41'8 7.5
2017-Jan-11 01:33N 45°34' E 036°39'  
2017-Jan-03 17:33N 45°24' E 036°40'8 8.0
2017-Jan-03 16:34N 45°19' E 036°32'7 6.8
2017-Jan-03 15:33N 45°13' E 036°29'3 2.6
2017-Jan-03 14:31N 45°10' E 036°30'0 0.0
2017-Jan-03 13:31N 45°10' E 036°30'0 0.0
2017-Jan-03 12:31N 45°10' E 036°30'0 0.0
2017-Jan-03 09:31N 45°10' E 036°30'0 0.0
2017-Jan-03 08:19N 45°10' E 036°30'0 0.0
2017-Jan-03 07:28N 45°10' E 036°30'0 0.0
2017-Jan-03 06:28N 45°10' E 036°30'0 0.0
2017-Jan-03 05:25N 45°10' E 036°30'0 0.0
2017-Jan-03 04:25N 45°10' E 036°30'0 0.0
2017-Jan-03 03:07N 45°10' E 036°30'0 0.1
2017-Jan-03 02:32N 45°10' E 036°30'5 5.2
2017-Jan-03 01:33N 45°05' E 036°30'  

Dump ship's entire track history